createdAt,value
2018-05-18T00:02:11.620Z,99.90
2018-05-18T00:04:40.054Z,99.90
2018-05-18T00:07:08.499Z,99.90
2018-05-18T00:09:37.988Z,99.90
2018-05-18T00:12:06.415Z,99.90
2018-05-18T00:14:34.850Z,99.90
2018-05-18T00:17:04.344Z,99.90
2018-05-18T00:19:33.048Z,99.90
2018-05-18T00:22:02.522Z,99.90
2018-05-18T00:24:31.749Z,99.90
2018-05-18T00:27:00.200Z,99.90
2018-05-18T00:29:28.828Z,99.90
2018-05-18T00:31:57.267Z,99.90
2018-05-18T00:34:25.973Z,99.90
2018-05-18T00:36:54.413Z,99.90
2018-05-18T00:39:23.941Z,99.90
2018-05-18T00:41:52.373Z,99.90
2018-05-18T00:44:20.911Z,99.90
2018-05-18T00:46:50.405Z,99.90
2018-05-18T00:49:19.694Z,99.90
2018-05-18T00:51:48.697Z,99.90
2018-05-18T00:54:17.153Z,99.90
2018-05-18T00:56:46.363Z,99.90
2018-05-18T00:59:15.608Z,99.90
2018-05-18T01:01:44.965Z,99.90
2018-05-18T01:04:14.177Z,99.90
2018-05-18T01:06:42.807Z,99.90
2018-05-18T01:09:11.265Z,99.90
2018-05-18T01:11:39.721Z,99.90
2018-05-18T01:14:08.254Z,99.90
2018-05-18T01:16:36.703Z,99.90
2018-05-18T01:19:06.173Z,99.90
2018-05-18T01:21:35.129Z,99.90
2018-05-18T01:24:04.017Z,99.90
2018-05-18T01:26:32.468Z,99.90
2018-05-18T01:29:00.905Z,99.90
2018-05-18T01:31:30.121Z,99.90
2018-05-18T01:33:58.856Z,99.90
2018-05-18T01:36:27.573Z,99.90
2018-05-18T01:38:56.065Z,99.90
2018-05-18T01:41:24.502Z,99.90
2018-05-18T01:43:52.540Z,99.90
2018-05-18T01:46:20.981Z,99.90
2018-05-18T01:48:49.768Z,99.90
2018-05-18T01:51:18.424Z,99.90
2018-05-18T01:53:47.177Z,99.90
2018-05-18T01:56:16.548Z,99.90
2018-05-18T01:58:46.048Z,99.90
2018-05-18T02:01:15.265Z,99.90
2018-05-18T02:03:43.972Z,99.90
2018-05-18T02:06:13.240Z,99.90
2018-05-18T02:08:41.680Z,99.90
2018-05-18T02:11:10.168Z,99.90
2018-05-18T02:13:39.490Z,99.90
2018-05-18T02:16:08.208Z,99.90
2018-05-18T02:18:36.638Z,99.90
2018-05-18T02:21:05.344Z,99.90
2018-05-18T02:23:33.318Z,99.90
2018-05-18T02:26:01.761Z,99.90
2018-05-18T02:28:30.308Z,99.90
2018-05-18T02:30:59.039Z,99.90
2018-05-18T02:33:27.464Z,99.90
2018-05-18T02:35:56.241Z,99.90
2018-05-18T02:38:25.758Z,99.90
2018-05-18T02:40:55.115Z,99.90
2018-05-18T02:43:24.328Z,99.90
2018-05-18T02:45:53.688Z,99.90
2018-05-18T02:48:22.400Z,99.90
2018-05-18T02:50:51.606Z,99.90
2018-05-18T02:53:20.323Z,99.90
2018-05-18T02:55:49.014Z,99.90
2018-05-18T02:58:17.632Z,99.90
2018-05-18T03:00:46.384Z,99.90
2018-05-18T03:03:14.830Z,99.90
2018-05-18T03:05:44.024Z,99.90
2018-05-18T03:08:12.798Z,99.90
2018-05-18T03:10:42.018Z,99.90
2018-05-18T03:13:11.836Z,99.90
2018-05-18T03:15:40.616Z,99.90
2018-05-18T03:18:09.073Z,99.90
2018-05-18T03:20:37.757Z,99.90
2018-05-18T03:23:06.485Z,99.90
2018-05-18T03:25:35.129Z,99.90
2018-05-18T03:28:03.757Z,99.90
2018-05-18T03:30:32.209Z,99.90
2018-05-18T03:33:00.927Z,99.90
2018-05-18T03:35:29.436Z,99.90
2018-05-18T03:37:57.890Z,99.90
2018-05-18T03:40:26.340Z,99.90
2018-05-18T03:42:55.257Z,99.90
2018-05-18T03:45:24.736Z,99.90
2018-05-18T03:47:53.177Z,99.90
2018-05-18T03:50:21.809Z,99.90
2018-05-18T03:52:51.317Z,99.90
2018-05-18T03:55:19.752Z,99.90
2018-05-18T03:57:48.496Z,99.90
2018-05-18T04:00:16.944Z,99.90
2018-05-18T04:05:56.957Z,99.90
2018-05-18T04:08:45.777Z,99.90
2018-05-18T04:11:14.079Z,99.90
2018-05-18T04:13:42.524Z,99.90
2018-05-18T04:16:11.203Z,99.90
2018-05-18T04:18:40.409Z,99.90
2018-05-18T04:21:09.114Z,99.90
2018-05-18T04:23:37.669Z,99.90
2018-05-18T04:26:06.055Z,99.90
2018-05-18T04:28:34.706Z,99.90
2018-05-18T04:31:03.417Z,99.90
2018-05-18T04:33:32.133Z,99.90
2018-05-18T04:36:00.825Z,99.90
2018-05-18T04:38:29.541Z,99.90
2018-05-18T04:40:57.993Z,99.90
2018-05-18T04:43:26.715Z,99.90
2018-05-18T04:45:55.205Z,99.90
2018-05-18T04:48:24.435Z,99.90
2018-05-18T04:50:52.994Z,99.90
2018-05-18T04:53:21.616Z,99.90
2018-05-18T04:55:50.064Z,99.90
2018-05-18T04:58:19.269Z,99.90
2018-05-18T05:00:47.993Z,99.90
2018-05-18T05:03:16.437Z,99.90
2018-05-18T05:05:45.208Z,99.90
2018-05-18T05:08:14.408Z,99.90
2018-05-18T05:10:43.625Z,99.90
2018-05-18T05:13:12.493Z,99.90
2018-05-18T05:15:41.075Z,99.90
2018-05-18T05:18:09.800Z,99.90
2018-05-18T05:20:39.280Z,99.90
2018-05-18T05:23:07.996Z,99.90
2018-05-18T05:25:36.448Z,99.90
2018-05-18T05:28:04.548Z,99.90
2018-05-18T05:30:33.338Z,99.90
2018-05-18T05:33:01.892Z,99.90
2018-05-18T05:35:30.428Z,99.90
2018-05-18T05:37:58.874Z,99.90
2018-05-18T05:40:27.456Z,99.90
2018-05-18T05:42:55.892Z,99.90
2018-05-18T05:45:25.808Z,99.90
2018-05-18T05:47:55.020Z,99.90
2018-05-18T05:50:23.594Z,99.90
2018-05-18T05:52:52.461Z,99.90
2018-05-18T05:55:21.592Z,99.90
2018-05-18T05:57:51.086Z,99.90
2018-05-18T06:00:19.966Z,99.90
2018-05-18T06:02:49.996Z,99.90
2018-05-18T06:05:18.501Z,99.90
2018-05-18T06:07:47.429Z,99.90
2018-05-18T06:10:16.144Z,99.90
2018-05-18T06:12:45.650Z,99.90
2018-05-18T06:15:15.154Z,99.90
2018-05-18T06:17:43.634Z,99.90
2018-05-18T06:20:12.836Z,99.90
2018-05-18T06:22:41.320Z,99.90
2018-05-18T06:25:10.940Z,99.90
2018-05-18T06:27:39.544Z,99.90
2018-05-18T06:30:07.989Z,99.90
2018-05-18T06:32:37.476Z,99.90
2018-05-18T06:35:06.782Z,99.90
2018-05-18T06:37:35.352Z,99.90
2018-05-18T06:40:04.089Z,99.90
2018-05-18T06:42:33.456Z,99.90
2018-05-18T06:45:01.897Z,99.90
2018-05-18T06:47:30.556Z,99.90
2018-05-18T06:49:59.090Z,99.90
2018-05-18T06:52:27.586Z,99.90
2018-05-18T06:54:56.312Z,99.90
2018-05-18T06:57:24.941Z,99.90
2018-05-18T06:59:53.459Z,99.90
2018-05-18T07:02:21.912Z,99.90
2018-05-18T07:04:50.769Z,99.90
2018-05-18T07:07:19.199Z,99.90
2018-05-18T07:09:48.802Z,99.90
2018-05-18T07:12:17.251Z,99.90
2018-05-18T07:14:45.949Z,99.90
2018-05-18T07:17:14.682Z,99.90
2018-05-18T07:19:43.243Z,99.90
2018-05-18T07:22:12.724Z,99.90
2018-05-18T07:24:41.312Z,99.90
2018-05-18T07:27:10.951Z,99.90
2018-05-18T07:29:40.217Z,99.90
2018-05-18T07:32:09.017Z,99.90
2018-05-18T07:34:38.209Z,99.90
2018-05-18T07:37:06.781Z,99.90
2018-05-18T07:39:35.277Z,99.90
2018-05-18T07:42:04.807Z,99.90
2018-05-18T07:44:33.521Z,99.90
2018-05-18T07:47:02.202Z,99.90
2018-05-18T07:49:30.936Z,99.90
2018-05-18T07:52:00.228Z,99.90
2018-05-18T07:54:29.010Z,99.90
2018-05-18T07:56:57.616Z,99.90
2018-05-18T07:59:26.066Z,99.90
2018-05-18T08:01:55.128Z,99.90
2018-05-18T08:04:23.562Z,99.90
2018-05-18T08:06:52.844Z,99.90
2018-05-18T08:09:21.559Z,99.90
2018-05-18T08:11:50.002Z,99.90
2018-05-18T08:14:18.716Z,99.90
2018-05-18T08:16:47.175Z,99.90
2018-05-18T08:19:15.358Z,99.90
2018-05-18T08:21:44.748Z,99.90
2018-05-18T08:24:13.464Z,99.90
2018-05-18T08:26:41.954Z,99.90
2018-05-18T08:29:21.724Z,99.90
2018-05-18T08:31:50.176Z,99.90
2018-05-18T08:34:18.900Z,99.90
2018-05-18T08:36:47.809Z,99.90
2018-05-18T08:39:16.528Z,99.90
2018-05-18T08:41:46.011Z,99.90
2018-05-18T08:44:14.466Z,99.90
2018-05-18T08:46:43.096Z,99.90
2018-05-18T08:49:11.536Z,99.90
2018-05-18T08:51:40.761Z,99.90
2018-05-18T08:54:09.210Z,99.90
2018-05-18T08:56:38.409Z,99.90
2018-05-18T08:59:07.621Z,99.90
2018-05-18T09:01:36.084Z,99.90
2018-05-18T09:04:05.305Z,99.90
2018-05-18T09:06:33.775Z,99.90
2018-05-18T09:09:02.226Z,99.90
2018-05-18T09:11:30.938Z,99.90
2018-05-18T09:13:59.555Z,99.90
2018-05-18T09:16:29.020Z,99.90
2018-05-18T09:18:58.219Z,99.90
2018-05-18T09:21:27.450Z,99.90
2018-05-18T09:23:56.107Z,99.90
2018-05-18T09:26:24.911Z,99.90
2018-05-18T09:28:53.611Z,99.90
2018-05-18T09:31:22.056Z,99.90
2018-05-18T09:33:51.258Z,99.90
2018-05-18T09:36:20.661Z,99.90
2018-05-18T09:38:49.106Z,99.90
2018-05-18T09:41:17.789Z,99.90
2018-05-18T09:43:46.229Z,99.90
2018-05-18T09:46:14.737Z,99.90
2018-05-18T09:48:44.052Z,99.90
2018-05-18T09:51:13.295Z,96.70
2018-05-18T09:53:41.725Z,96.70
2018-05-18T09:56:10.241Z,98.20
2018-05-18T09:58:38.696Z,99.50
2018-05-18T10:01:07.393Z,99.10
2018-05-18T10:03:37.625Z,96.10
2018-05-18T10:06:06.925Z,93.10
2018-05-18T10:08:35.358Z,93.10
2018-05-18T10:11:03.810Z,91.40
2018-05-18T10:13:32.479Z,89.50
2018-05-18T10:16:01.008Z,87.50
2018-05-18T10:18:29.534Z,84.20
2018-05-18T10:20:58.087Z,84.80
2018-05-18T10:23:27.176Z,84.00
2018-05-18T10:25:55.760Z,89.90
2018-05-18T10:28:26.647Z,90.10
2018-05-18T10:30:55.102Z,92.40
2018-05-18T10:33:24.598Z,97.50
2018-05-18T10:35:53.812Z,99.20
2018-05-18T10:38:22.529Z,99.10
2018-05-18T10:40:51.302Z,97.60
2018-05-18T10:43:19.907Z,98.40
2018-05-18T10:45:49.148Z,97.40
2018-05-18T10:48:18.341Z,94.20
2018-05-18T10:50:47.104Z,94.30
2018-05-18T10:53:15.748Z,87.60
2018-05-18T10:55:44.196Z,88.30
2018-05-18T10:58:13.422Z,85.70
2018-05-18T11:00:41.958Z,85.80
2018-05-18T11:03:10.594Z,78.10
2018-05-18T11:05:39.040Z,77.50
2018-05-18T11:08:08.244Z,80.50
2018-05-18T11:10:36.668Z,80.50
2018-05-18T11:13:05.392Z,87.50
2018-05-18T11:15:34.590Z,85.90
2018-05-18T11:18:03.300Z,85.70
2018-05-18T11:20:31.751Z,85.70
2018-05-18T11:23:00.950Z,78.30
2018-05-18T11:25:30.024Z,79.50
2018-05-18T11:27:58.465Z,79.50
2018-05-18T11:30:26.891Z,79.80
2018-05-18T11:32:55.341Z,78.20
2018-05-18T11:35:24.051Z,67.20
2018-05-18T11:37:52.749Z,68.60
2018-05-18T11:40:21.184Z,73.20
2018-05-18T11:42:49.861Z,67.00
2018-05-18T11:45:19.075Z,66.50
2018-05-18T11:47:48.321Z,67.80
2018-05-18T11:50:16.705Z,68.80
2018-05-18T11:52:45.908Z,64.70
2018-05-18T11:55:14.393Z,64.80
2018-05-18T11:57:42.833Z,72.10
2018-05-18T12:00:11.265Z,69.80
2018-05-18T12:02:39.687Z,74.60
2018-05-18T12:05:08.401Z,68.10
2018-05-18T12:07:37.602Z,71.10
2018-05-18T12:10:05.705Z,70.80
2018-05-18T12:12:35.149Z,67.50
2018-05-18T12:15:04.673Z,68.70
2018-05-18T12:17:34.013Z,64.10
2018-05-18T12:20:02.221Z,64.20
2018-05-18T12:22:32.607Z,63.70
2018-05-18T12:25:02.388Z,64.50
2018-05-18T12:27:31.615Z,66.80
2018-05-18T12:30:00.241Z,66.80
2018-05-18T12:32:29.468Z,69.40
2018-05-18T12:34:58.681Z,68.30
2018-05-18T12:37:27.129Z,68.20
2018-05-18T12:39:55.825Z,67.40
2018-05-18T12:42:24.393Z,73.00
2018-05-18T12:44:53.109Z,65.20
2018-05-18T12:47:21.986Z,62.40
2018-05-18T12:49:51.401Z,63.70
2018-05-18T12:52:20.104Z,56.90
2018-05-18T12:54:49.579Z,63.50
2018-05-18T12:57:18.814Z,68.20
2018-05-18T12:59:47.452Z,68.50
2018-05-18T13:02:16.657Z,72.50
2018-05-18T13:04:45.867Z,69.50
2018-05-18T13:07:14.301Z,69.50
2018-05-18T13:09:43.835Z,61.50
2018-05-18T13:12:13.037Z,58.00
2018-05-18T13:14:41.588Z,58.10
2018-05-18T13:17:10.219Z,61.00
2018-05-18T13:19:38.663Z,60.40
2018-05-18T13:22:07.095Z,56.70
2018-05-18T13:24:36.589Z,59.00
2018-05-18T13:27:04.693Z,58.80
2018-05-18T13:29:33.181Z,55.70
2018-05-18T13:32:01.889Z,56.20
2018-05-18T13:34:30.482Z,52.90
2018-05-18T13:36:59.684Z,51.50
2018-05-18T13:39:28.369Z,51.60
2018-05-18T13:41:57.878Z,47.60
2018-05-18T13:44:26.300Z,47.50
2018-05-18T13:46:54.737Z,48.80
2018-05-18T13:49:23.192Z,47.30
2018-05-18T13:51:52.611Z,49.70
2018-05-18T13:54:21.901Z,50.50
2018-05-18T13:56:50.711Z,50.60
2018-05-18T13:59:19.146Z,50.30
2018-05-18T14:01:48.720Z,48.40
2018-05-18T14:04:17.252Z,48.50
2018-05-18T14:06:46.440Z,48.50
2018-05-18T14:09:15.145Z,48.50
2018-05-18T14:11:43.649Z,48.40
2018-05-18T14:14:12.072Z,47.40
2018-05-18T14:16:40.818Z,48.90
2018-05-18T14:19:10.296Z,47.50
2018-05-18T14:21:38.727Z,47.50
2018-05-18T14:24:07.416Z,49.60
2018-05-18T14:26:35.870Z,49.10
2018-05-18T14:29:04.319Z,47.80
2018-05-18T14:31:33.029Z,47.10
2018-05-18T14:34:01.527Z,47.50
2018-05-18T14:36:29.969Z,45.40
2018-05-18T14:38:58.618Z,47.30
2018-05-18T14:41:27.321Z,45.00
2018-05-18T14:43:56.541Z,49.70
2018-05-18T14:46:26.046Z,49.70
2018-05-18T14:48:55.332Z,47.00
2018-05-18T14:51:23.829Z,46.90
2018-05-18T14:53:52.299Z,48.40
2018-05-18T14:56:21.019Z,45.70
2018-05-18T14:58:49.455Z,48.40
2018-05-18T15:01:18.656Z,47.30
2018-05-18T15:03:47.329Z,47.30
2018-05-18T15:06:16.537Z,50.00
2018-05-18T15:08:45.240Z,50.00
2018-05-18T15:11:14.197Z,49.30
2018-05-18T15:13:42.656Z,47.60
2018-05-18T15:16:12.383Z,45.70
2018-05-18T15:18:40.861Z,48.20
2018-05-18T15:21:09.294Z,48.00
2018-05-18T15:23:38.529Z,48.20
2018-05-18T15:26:08.266Z,50.80
2018-05-18T15:28:37.619Z,48.20
2018-05-18T15:31:07.074Z,49.90
2018-05-18T15:33:35.661Z,49.90
2018-05-18T15:36:04.092Z,49.50
2018-05-18T15:38:32.516Z,49.50
2018-05-18T15:41:01.729Z,50.90
2018-05-18T15:43:30.199Z,51.10
2018-05-18T15:45:58.888Z,49.70
2018-05-18T15:48:27.336Z,49.60
2018-05-18T15:50:55.764Z,50.00
2018-05-18T15:53:25.225Z,47.60
2018-05-18T15:55:53.945Z,47.60
2018-05-18T15:58:22.379Z,48.30
2018-05-18T16:00:51.709Z,50.70
2018-05-18T16:03:20.381Z,50.70
2018-05-18T16:05:49.577Z,49.30
2018-05-18T16:08:18.279Z,49.30
2018-05-18T16:10:46.729Z,52.90
2018-05-18T16:13:15.153Z,52.40
2018-05-18T16:15:44.617Z,53.40
2018-05-18T16:18:13.228Z,53.40
2018-05-18T16:20:41.810Z,55.10
2018-05-18T16:23:10.307Z,55.40
2018-05-18T16:25:38.760Z,58.40
2018-05-18T16:28:07.515Z,59.00
2018-05-18T16:30:36.165Z,57.60
2018-05-18T16:33:04.514Z,58.70
2018-05-18T16:35:33.660Z,58.50
2018-05-18T16:38:02.134Z,59.70
2018-05-18T16:40:30.574Z,60.20
2018-05-18T16:42:59.316Z,64.10
2018-05-18T16:45:27.752Z,65.00
2018-05-18T16:47:56.196Z,65.30
2018-05-18T16:50:24.716Z,66.90
2018-05-18T16:52:53.156Z,66.00
2018-05-18T16:55:21.795Z,65.30
2018-05-18T16:57:50.509Z,68.50
2018-05-18T17:00:19.131Z,70.80
2018-05-18T17:02:47.569Z,69.90
2018-05-18T17:05:15.989Z,68.10
2018-05-18T17:07:44.691Z,69.60
2018-05-18T17:10:13.000Z,70.20
2018-05-18T17:12:41.705Z,70.70
2018-05-18T17:15:10.137Z,69.90
2018-05-18T17:17:38.577Z,71.60
2018-05-18T17:20:07.137Z,70.90
2018-05-18T17:22:35.568Z,71.90
2018-05-18T17:25:04.719Z,71.50
2018-05-18T17:27:33.421Z,71.50
2018-05-18T17:30:02.102Z,72.40
2018-05-18T17:32:30.831Z,72.60
2018-05-18T17:34:59.256Z,72.30
2018-05-18T17:37:27.756Z,72.00
2018-05-18T17:39:56.208Z,72.40
2018-05-18T17:42:24.917Z,74.90
2018-05-18T17:44:54.126Z,75.50
2018-05-18T17:47:23.548Z,75.70
2018-05-18T17:49:51.976Z,75.70
2018-05-18T17:52:20.680Z,75.30
2018-05-18T17:54:49.559Z,74.60
2018-05-18T17:57:18.244Z,74.60
2018-05-18T17:59:47.856Z,77.20
2018-05-18T18:02:16.722Z,77.10
2018-05-18T18:04:45.155Z,79.30
2018-05-18T18:07:13.592Z,78.50
2018-05-18T18:09:42.934Z,81.50
2018-05-18T18:12:12.408Z,81.10
2018-05-18T18:14:41.608Z,81.00
2018-05-18T18:17:10.826Z,81.40
2018-05-18T18:19:39.532Z,81.30
2018-05-18T18:22:07.950Z,83.10
2018-05-18T18:24:36.668Z,86.10
2018-05-18T18:27:05.376Z,84.00
2018-05-18T18:29:33.812Z,85.30
2018-05-18T18:32:03.012Z,89.90
2018-05-18T18:34:31.720Z,89.60
2018-05-18T18:37:00.477Z,90.50
2018-05-18T18:39:29.708Z,92.90
2018-05-18T18:41:58.151Z,92.90
2018-05-18T18:44:26.759Z,92.30
2018-05-18T18:46:55.200Z,93.70
2018-05-18T18:49:24.529Z,97.30
2018-05-18T18:51:53.727Z,97.90
2018-05-18T18:54:22.310Z,97.80
2018-05-18T18:56:52.310Z,99.90
2018-05-18T18:59:21.874Z,99.90
2018-05-18T19:01:50.393Z,99.90
2018-05-18T19:04:18.883Z,99.90
2018-05-18T19:06:48.085Z,99.90
2018-05-18T19:09:16.821Z,99.90
2018-05-18T19:11:45.285Z,99.90
2018-05-18T19:14:13.761Z,99.90
2018-05-18T19:16:42.197Z,99.90
2018-05-18T19:19:10.669Z,99.90
2018-05-18T19:21:39.105Z,99.90
2018-05-18T19:24:08.638Z,99.90
2018-05-18T19:26:38.289Z,99.90
2018-05-18T19:29:06.989Z,99.90
2018-05-18T19:31:35.429Z,99.90
2018-05-18T19:34:03.865Z,99.90
2018-05-18T19:36:33.516Z,99.90
2018-05-18T19:39:02.209Z,99.90
2018-05-18T19:41:31.413Z,99.90
2018-05-18T19:43:59.789Z,99.90
2018-05-18T19:46:28.500Z,99.90
2018-05-18T19:48:57.165Z,99.90
2018-05-18T19:51:25.870Z,99.90
2018-05-18T19:53:54.316Z,99.90
2018-05-18T19:56:22.957Z,99.90
2018-05-18T19:58:51.678Z,99.90
2018-05-18T20:01:20.809Z,99.90
2018-05-18T20:03:50.989Z,99.90
2018-05-18T20:06:20.423Z,99.90
2018-05-18T20:08:49.642Z,99.90
2018-05-18T20:11:18.189Z,99.90
2018-05-18T20:13:47.401Z,99.90
2018-05-18T20:16:15.846Z,99.90
2018-05-18T20:18:44.285Z,99.90
2018-05-18T20:21:13.820Z,99.90
2018-05-18T20:23:43.168Z,99.90
2018-05-18T20:26:11.876Z,99.90
2018-05-18T20:28:40.320Z,99.90
2018-05-18T20:31:08.937Z,99.90
2018-05-18T20:33:37.824Z,99.90
2018-05-18T20:36:06.274Z,99.90
2018-05-18T20:38:35.312Z,99.90
2018-05-18T20:41:04.023Z,99.90
2018-05-18T20:43:32.720Z,99.90
2018-05-18T20:46:01.441Z,99.90
2018-05-18T20:48:30.928Z,99.90
2018-05-18T20:51:00.332Z,99.90
2018-05-18T20:53:28.988Z,99.90
2018-05-18T20:55:57.537Z,99.90
2018-05-18T20:58:26.216Z,99.90
2018-05-18T21:00:54.668Z,99.90
2018-05-18T21:03:23.374Z,99.90
2018-05-18T21:05:51.864Z,99.90
2018-05-18T21:08:20.732Z,99.90
2018-05-18T21:10:49.168Z,99.90
2018-05-18T21:13:18.613Z,99.90
2018-05-18T21:15:47.917Z,99.90
2018-05-18T21:18:16.689Z,99.90
2018-05-18T21:20:45.894Z,99.90
2018-05-18T21:23:14.364Z,99.90
2018-05-18T21:25:43.065Z,99.90
2018-05-18T21:28:11.498Z,99.90
2018-05-18T21:30:40.228Z,99.90
2018-05-18T21:33:10.231Z,99.90
2018-05-18T21:35:39.446Z,99.90
2018-05-18T21:38:08.237Z,99.90
2018-05-18T21:40:36.672Z,99.90
2018-05-18T21:43:05.104Z,99.90
2018-05-18T21:45:34.580Z,99.90
2018-05-18T21:48:03.264Z,99.90
2018-05-18T21:50:31.974Z,99.90
2018-05-18T21:53:01.468Z,99.90
2018-05-18T21:55:29.923Z,99.90
2018-05-18T21:57:59.130Z,99.90
2018-05-18T22:00:29.372Z,99.90
2018-05-18T22:02:57.815Z,99.90
2018-05-18T22:05:26.256Z,99.90
2018-05-18T22:07:55.217Z,99.90
2018-05-18T22:10:23.967Z,99.90
2018-05-18T22:12:52.441Z,99.90
2018-05-18T22:15:21.440Z,99.90
2018-05-18T22:17:49.872Z,99.90
2018-05-18T22:20:18.315Z,99.90
2018-05-18T22:22:47.801Z,99.90
2018-05-18T22:25:16.388Z,99.90
2018-05-18T22:27:45.120Z,99.90
2018-05-18T22:30:14.605Z,99.90
2018-05-18T22:32:43.038Z,99.90
2018-05-18T22:35:11.474Z,99.90
2018-05-18T22:37:39.941Z,99.90
2018-05-18T22:40:08.621Z,99.90
2018-05-18T22:42:37.309Z,99.90
2018-05-18T22:45:06.021Z,99.90
2018-05-18T22:47:34.779Z,99.90
2018-05-18T22:50:03.433Z,99.90
2018-05-18T22:52:31.997Z,99.90
2018-05-18T22:55:00.424Z,99.90
2018-05-18T22:57:29.616Z,99.90
2018-05-18T22:59:58.001Z,99.90
2018-05-18T23:02:26.512Z,99.90
2018-05-18T23:04:54.941Z,99.90
2018-05-18T23:07:24.144Z,99.90
2018-05-18T23:09:53.340Z,99.90
2018-05-18T23:12:22.051Z,99.90
2018-05-18T23:14:50.768Z,99.90
2018-05-18T23:17:20.220Z,99.90
2018-05-18T23:19:49.208Z,99.90
2018-05-18T23:22:18.039Z,99.90
2018-05-18T23:24:46.464Z,99.90
2018-05-18T23:27:14.893Z,99.90
2018-05-18T23:29:43.336Z,99.90
2018-05-18T23:32:12.040Z,99.90
2018-05-18T23:34:40.482Z,99.90
2018-05-18T23:37:09.140Z,99.90
2018-05-18T23:39:37.846Z,99.90
2018-05-18T23:42:06.288Z,99.90
2018-05-18T23:44:35.064Z,99.90
2018-05-18T23:47:03.519Z,99.90
2018-05-18T23:49:33.015Z,99.90
2018-05-18T23:52:01.736Z,99.90
2018-05-18T23:54:31.226Z,99.90
2018-05-18T23:57:00.104Z,99.90
2018-05-18T23:59:29.422Z,99.90
